sensor_id;sensor_type;location;lat;lon;timestamp;P1;durP1;ratioP1;P2;durP2;ratioP2
4311;SDS011;2169;49.086;9.284;2023-09-30T00:02:20;6.80;;;1.27;;
4311;SDS011;2169;49.086;9.284;2023-09-30T00:04:46;3.63;;;0.80;;
4311;SDS011;2169;49.086;9.284;2023-09-30T00:07:13;2.33;;;1.43;;
4311;SDS011;2169;49.086;9.284;2023-09-30T00:09:40;1.37;;;1.17;;
4311;SDS011;2169;49.086;9.284;2023-09-30T00:12:08;1.00;;;1.00;;
4311;SDS011;2169;49.086;9.284;2023-09-30T00:14:35;2.13;;;1.10;;
4311;SDS011;2169;49.086;9.284;2023-09-30T00:17:02;1.67;;;1.30;;
4311;SDS011;2169;49.086;9.284;2023-09-30T00:19:29;6.83;;;1.10;;
4311;SDS011;2169;49.086;9.284;2023-09-30T00:21:57;3.63;;;1.43;;
4311;SDS011;2169;49.086;9.284;2023-09-30T00:24:25;1.77;;;1.40;;
4311;SDS011;2169;49.086;9.284;2023-09-30T00:26:51;1.00;;;0.90;;
4311;SDS011;2169;49.086;9.284;2023-09-30T00:29:20;6.27;;;1.73;;
4311;SDS011;2169;49.086;9.284;2023-09-30T00:31:47;4.57;;;1.30;;
4311;SDS011;2169;49.086;9.284;2023-09-30T00:34:13;3.43;;;1.40;;
4311;SDS011;2169;49.086;9.284;2023-09-30T00:36:40;4.00;;;2.17;;
4311;SDS011;2169;49.086;9.284;2023-09-30T00:39:07;4.30;;;1.20;;
4311;SDS011;2169;49.086;9.284;2023-09-30T00:41:34;2.20;;;2.00;;
4311;SDS011;2169;49.086;9.284;2023-09-30T00:44:01;1.47;;;1.37;;
4311;SDS011;2169;49.086;9.284;2023-09-30T00:46:30;5.07;;;1.53;;
4311;SDS011;2169;49.086;9.284;2023-09-30T00:48:58;2.57;;;1.33;;
4311;SDS011;2169;49.086;9.284;2023-09-30T00:51:26;3.57;;;1.40;;
4311;SDS011;2169;49.086;9.284;2023-09-30T00:53:54;3.80;;;1.03;;
4311;SDS011;2169;49.086;9.284;2023-09-30T00:56:23;2.20;;;1.67;;
4311;SDS011;2169;49.086;9.284;2023-09-30T00:58:52;2.10;;;1.90;;
4311;SDS011;2169;49.086;9.284;2023-09-30T01:01:19;1.80;;;1.60;;
4311;SDS011;2169;49.086;9.284;2023-09-30T01:03:48;1.47;;;1.30;;
4311;SDS011;2169;49.086;9.284;2023-09-30T01:06:15;6.63;;;1.70;;
4311;SDS011;2169;49.086;9.284;2023-09-30T01:08:42;2.73;;;1.77;;
4311;SDS011;2169;49.086;9.284;2023-09-30T01:11:09;7.13;;;2.33;;
4311;SDS011;2169;49.086;9.284;2023-09-30T01:13:36;5.33;;;2.03;;
4311;SDS011;2169;49.086;9.284;2023-09-30T01:16:03;8.23;;;3.10;;
4311;SDS011;2169;49.086;9.284;2023-09-30T01:18:31;5.50;;;2.03;;
4311;SDS011;2169;49.086;9.284;2023-09-30T01:20:59;7.90;;;1.43;;
4311;SDS011;2169;49.086;9.284;2023-09-30T01:23:31;3.90;;;1.83;;
4311;SDS011;2169;49.086;9.284;2023-09-30T01:26:00;4.83;;;1.43;;
4311;SDS011;2169;49.086;9.284;2023-09-30T01:28:28;7.60;;;2.17;;
4311;SDS011;2169;49.086;9.284;2023-09-30T01:30:55;1.07;;;1.07;;
4311;SDS011;2169;49.086;9.284;2023-09-30T01:33:23;7.33;;;2.43;;
4311;SDS011;2169;49.086;9.284;2023-09-30T01:35:49;2.30;;;2.10;;
4311;SDS011;2169;49.086;9.284;2023-09-30T01:38:16;2.50;;;1.60;;
4311;SDS011;2169;49.086;9.284;2023-09-30T01:40:44;1.80;;;1.70;;
4311;SDS011;2169;49.086;9.284;2023-09-30T01:43:11;3.93;;;2.67;;
4311;SDS011;2169;49.086;9.284;2023-09-30T01:45:38;3.03;;;2.13;;
4311;SDS011;2169;49.086;9.284;2023-09-30T01:48:05;10.90;;;3.30;;
4311;SDS011;2169;49.086;9.284;2023-09-30T01:50:35;4.00;;;1.67;;
4311;SDS011;2169;49.086;9.284;2023-09-30T01:53:02;3.70;;;2.03;;
4311;SDS011;2169;49.086;9.284;2023-09-30T01:55:30;10.33;;;2.07;;
4311;SDS011;2169;49.086;9.284;2023-09-30T01:57:58;5.00;;;2.50;;
4311;SDS011;2169;49.086;9.284;2023-09-30T02:00:24;4.50;;;3.80;;
4311;SDS011;2169;49.086;9.284;2023-09-30T02:02:53;7.00;;;2.60;;
4311;SDS011;2169;49.086;9.284;2023-09-30T02:05:20;3.53;;;3.07;;
4311;SDS011;2169;49.086;9.284;2023-09-30T02:07:47;7.10;;;3.40;;
4311;SDS011;2169;49.086;9.284;2023-09-30T02:10:14;2.33;;;1.87;;
4311;SDS011;2169;49.086;9.284;2023-09-30T02:12:43;6.80;;;2.43;;
4311;SDS011;2169;49.086;9.284;2023-09-30T02:15:12;2.70;;;2.50;;
4311;SDS011;2169;49.086;9.284;2023-09-30T02:17:39;8.83;;;2.60;;
4311;SDS011;2169;49.086;9.284;2023-09-30T02:20:10;2.43;;;2.20;;
4311;SDS011;2169;49.086;9.284;2023-09-30T02:22:43;6.77;;;2.93;;
4311;SDS011;2169;49.086;9.284;2023-09-30T02:25:11;2.40;;;2.20;;
4311;SDS011;2169;49.086;9.284;2023-09-30T02:27:39;2.50;;;2.30;;
4311;SDS011;2169;49.086;9.284;2023-09-30T02:30:07;8.50;;;2.40;;
4311;SDS011;2169;49.086;9.284;2023-09-30T02:32:36;9.00;;;2.00;;
4311;SDS011;2169;49.086;9.284;2023-09-30T02:35:04;5.80;;;3.10;;
4311;SDS011;2169;49.086;9.284;2023-09-30T02:37:31;7.97;;;2.73;;
4311;SDS011;2169;49.086;9.284;2023-09-30T02:40:01;2.20;;;1.70;;
4311;SDS011;2169;49.086;9.284;2023-09-30T02:42:30;7.37;;;2.20;;
4311;SDS011;2169;49.086;9.284;2023-09-30T02:44:58;2.13;;;2.00;;
4311;SDS011;2169;49.086;9.284;2023-09-30T02:47:25;3.97;;;2.00;;
4311;SDS011;2169;49.086;9.284;2023-09-30T02:49:53;2.10;;;1.87;;
4311;SDS011;2169;49.086;9.284;2023-09-30T02:52:22;7.83;;;2.67;;
4311;SDS011;2169;49.086;9.284;2023-09-30T02:54:49;4.10;;;1.80;;
4311;SDS011;2169;49.086;9.284;2023-09-30T02:57:16;2.90;;;1.93;;
4311;SDS011;2169;49.086;9.284;2023-09-30T02:59:44;4.80;;;2.10;;
4311;SDS011;2169;49.086;9.284;2023-09-30T03:02:11;2.20;;;1.67;;
4311;SDS011;2169;49.086;9.284;2023-09-30T03:04:38;7.90;;;2.60;;
4311;SDS011;2169;49.086;9.284;2023-09-30T03:07:06;2.50;;;2.40;;
4311;SDS011;2169;49.086;9.284;2023-09-30T03:09:33;4.27;;;2.17;;
4311;SDS011;2169;49.086;9.284;2023-09-30T03:12:00;3.33;;;1.67;;
4311;SDS011;2169;49.086;9.284;2023-09-30T03:14:29;11.53;;;2.13;;
4311;SDS011;2169;49.086;9.284;2023-09-30T03:16:57;2.50;;;1.40;;
4311;SDS011;2169;49.086;9.284;2023-09-30T03:19:23;1.97;;;1.80;;
4311;SDS011;2169;49.086;9.284;2023-09-30T03:21:50;2.78;;;1.40;;
4311;SDS011;2169;49.086;9.284;2023-09-30T03:24:18;5.20;;;2.10;;
4311;SDS011;2169;49.086;9.284;2023-09-30T03:26:46;2.23;;;2.03;;
4311;SDS011;2169;49.086;9.284;2023-09-30T03:29:12;2.90;;;2.07;;
4311;SDS011;2169;49.086;9.284;2023-09-30T03:31:39;3.30;;;3.13;;
4311;SDS011;2169;49.086;9.284;2023-09-30T03:34:06;8.40;;;2.13;;
4311;SDS011;2169;49.086;9.284;2023-09-30T03:36:33;3.40;;;2.60;;
4311;SDS011;2169;49.086;9.284;2023-09-30T03:39:00;3.23;;;2.70;;
4311;SDS011;2169;49.086;9.284;2023-09-30T03:41:33;3.43;;;2.57;;
4311;SDS011;2169;49.086;9.284;2023-09-30T03:44:02;1.80;;;1.70;;
4311;SDS011;2169;49.086;9.284;2023-09-30T03:46:29;3.63;;;2.20;;
4311;SDS011;2169;49.086;9.284;2023-09-30T03:48:56;7.37;;;4.63;;
4311;SDS011;2169;49.086;9.284;2023-09-30T03:51:24;2.83;;;2.17;;
4311;SDS011;2169;49.086;9.284;2023-09-30T03:53:51;3.77;;;2.87;;
4311;SDS011;2169;49.086;9.284;2023-09-30T03:56:18;4.83;;;2.70;;
4311;SDS011;2169;49.086;9.284;2023-09-30T03:58:48;9.93;;;2.37;;
4311;SDS011;2169;49.086;9.284;2023-09-30T04:01:16;1.97;;;1.87;;
4311;SDS011;2169;49.086;9.284;2023-09-30T04:03:44;4.83;;;3.27;;
4311;SDS011;2169;49.086;9.284;2023-09-30T04:06:11;2.43;;;2.23;;
4311;SDS011;2169;49.086;9.284;2023-09-30T04:08:38;5.20;;;2.67;;
4311;SDS011;2169;49.086;9.284;2023-09-30T04:11:05;2.23;;;2.13;;
4311;SDS011;2169;49.086;9.284;2023-09-30T04:13:32;3.87;;;3.50;;
4311;SDS011;2169;49.086;9.284;2023-09-30T04:16:01;1.70;;;1.40;;
4311;SDS011;2169;49.086;9.284;2023-09-30T04:18:28;2.33;;;2.23;;
4311;SDS011;2169;49.086;9.284;2023-09-30T04:20:55;2.27;;;2.07;;
4311;SDS011;2169;49.086;9.284;2023-09-30T04:23:22;1.80;;;1.60;;
4311;SDS011;2169;49.086;9.284;2023-09-30T04:25:48;11.23;;;2.50;;
4311;SDS011;2169;49.086;9.284;2023-09-30T04:28:15;2.40;;;2.20;;
4311;SDS011;2169;49.086;9.284;2023-09-30T04:30:45;1.63;;;1.50;;
4311;SDS011;2169;49.086;9.284;2023-09-30T04:33:14;5.37;;;2.40;;
4311;SDS011;2169;49.086;9.284;2023-09-30T04:35:42;10.70;;;2.10;;
4311;SDS011;2169;49.086;9.284;2023-09-30T04:38:09;3.80;;;2.07;;
4311;SDS011;2169;49.086;9.284;2023-09-30T04:40:36;1.90;;;1.80;;
4311;SDS011;2169;49.086;9.284;2023-09-30T04:43:03;4.77;;;2.80;;
4311;SDS011;2169;49.086;9.284;2023-09-30T04:45:30;2.40;;;1.30;;
4311;SDS011;2169;49.086;9.284;2023-09-30T04:47:58;4.07;;;1.57;;
4311;SDS011;2169;49.086;9.284;2023-09-30T04:50:27;2.63;;;2.43;;
4311;SDS011;2169;49.086;9.284;2023-09-30T04:52:55;12.60;;;3.13;;
4311;SDS011;2169;49.086;9.284;2023-09-30T04:55:22;1.70;;;1.60;;
4311;SDS011;2169;49.086;9.284;2023-09-30T04:57:49;5.90;;;2.90;;
4311;SDS011;2169;49.086;9.284;2023-09-30T05:00:17;3.87;;;2.10;;
4311;SDS011;2169;49.086;9.284;2023-09-30T05:02:49;7.50;;;2.43;;
4311;SDS011;2169;49.086;9.284;2023-09-30T05:05:17;3.47;;;1.53;;
4311;SDS011;2169;49.086;9.284;2023-09-30T05:07:45;7.77;;;2.40;;
4311;SDS011;2169;49.086;9.284;2023-09-30T05:10:12;6.53;;;2.20;;
4311;SDS011;2169;49.086;9.284;2023-09-30T05:12:41;3.50;;;2.00;;
4311;SDS011;2169;49.086;9.284;2023-09-30T05:15:10;6.20;;;2.10;;
4311;SDS011;2169;49.086;9.284;2023-09-30T05:17:37;4.83;;;3.03;;
4311;SDS011;2169;49.086;9.284;2023-09-30T05:20:05;2.40;;;2.20;;
4311;SDS011;2169;49.086;9.284;2023-09-30T05:22:32;9.67;;;2.80;;
4311;SDS011;2169;49.086;9.284;2023-09-30T05:25:00;4.13;;;2.83;;
4311;SDS011;2169;49.086;9.284;2023-09-30T05:27:27;2.83;;;2.27;;
4311;SDS011;2169;49.086;9.284;2023-09-30T05:29:54;5.87;;;2.20;;
4311;SDS011;2169;49.086;9.284;2023-09-30T05:32:21;2.30;;;2.20;;
4311;SDS011;2169;49.086;9.284;2023-09-30T05:34:48;3.63;;;2.90;;
4311;SDS011;2169;49.086;9.284;2023-09-30T05:37:15;7.60;;;3.47;;
4311;SDS011;2169;49.086;9.284;2023-09-30T05:39:42;2.80;;;2.60;;
4311;SDS011;2169;49.086;9.284;2023-09-30T05:42:11;3.53;;;3.30;;
4311;SDS011;2169;49.086;9.284;2023-09-30T05:44:37;11.83;;;2.90;;
4311;SDS011;2169;49.086;9.284;2023-09-30T05:47:04;2.30;;;2.00;;
4311;SDS011;2169;49.086;9.284;2023-09-30T05:49:31;2.83;;;2.13;;
4311;SDS011;2169;49.086;9.284;2023-09-30T05:51:58;6.00;;;2.20;;
4311;SDS011;2169;49.086;9.284;2023-09-30T05:54:24;6.27;;;2.70;;
4311;SDS011;2169;49.086;9.284;2023-09-30T05:56:51;3.27;;;2.30;;
4311;SDS011;2169;49.086;9.284;2023-09-30T05:59:19;3.00;;;2.80;;
4311;SDS011;2169;49.086;9.284;2023-09-30T06:01:46;5.07;;;2.13;;
4311;SDS011;2169;49.086;9.284;2023-09-30T06:04:13;6.63;;;2.23;;
4311;SDS011;2169;49.086;9.284;2023-09-30T06:06:40;5.03;;;2.60;;
4311;SDS011;2169;49.086;9.284;2023-09-30T06:09:08;4.40;;;4.00;;
4311;SDS011;2169;49.086;9.284;2023-09-30T06:11:34;9.40;;;3.67;;
4311;SDS011;2169;49.086;9.284;2023-09-30T06:14:02;4.07;;;3.40;;
4311;SDS011;2169;49.086;9.284;2023-09-30T06:16:32;7.10;;;3.47;;
4311;SDS011;2169;49.086;9.284;2023-09-30T06:18:59;6.90;;;5.40;;
4311;SDS011;2169;49.086;9.284;2023-09-30T06:21:27;6.60;;;4.63;;
4311;SDS011;2169;49.086;9.284;2023-09-30T06:23:54;11.70;;;4.40;;
4311;SDS011;2169;49.086;9.284;2023-09-30T06:26:21;8.53;;;4.30;;
4311;SDS011;2169;49.086;9.284;2023-09-30T06:28:49;11.10;;;6.20;;
4311;SDS011;2169;49.086;9.284;2023-09-30T06:31:19;13.27;;;11.93;;
4311;SDS011;2169;49.086;9.284;2023-09-30T06:33:47;10.50;;;5.97;;
4311;SDS011;2169;49.086;9.284;2023-09-30T06:36:14;5.03;;;4.43;;
4311;SDS011;2169;49.086;9.284;2023-09-30T06:38:41;10.97;;;3.83;;
4311;SDS011;2169;49.086;9.284;2023-09-30T06:41:14;7.33;;;4.37;;
4311;SDS011;2169;49.086;9.284;2023-09-30T06:43:41;4.10;;;3.80;;
4311;SDS011;2169;49.086;9.284;2023-09-30T06:46:08;5.60;;;3.77;;
4311;SDS011;2169;49.086;9.284;2023-09-30T06:48:35;4.20;;;3.50;;
4311;SDS011;2169;49.086;9.284;2023-09-30T06:51:04;10.50;;;4.80;;
4311;SDS011;2169;49.086;9.284;2023-09-30T06:53:30;5.33;;;4.43;;
4311;SDS011;2169;49.086;9.284;2023-09-30T06:55:57;7.13;;;5.27;;
4311;SDS011;2169;49.086;9.284;2023-09-30T06:58:24;6.47;;;4.87;;
4311;SDS011;2169;49.086;9.284;2023-09-30T07:00:51;11.13;;;4.80;;
4311;SDS011;2169;49.086;9.284;2023-09-30T07:03:18;8.23;;;4.23;;
4311;SDS011;2169;49.086;9.284;2023-09-30T07:05:45;8.30;;;5.53;;
4311;SDS011;2169;49.086;9.284;2023-09-30T07:08:16;7.07;;;5.20;;
4311;SDS011;2169;49.086;9.284;2023-09-30T07:10:43;11.10;;;4.73;;
4311;SDS011;2169;49.086;9.284;2023-09-30T07:13:11;6.60;;;4.90;;
4311;SDS011;2169;49.086;9.284;2023-09-30T07:15:38;6.90;;;4.03;;
4311;SDS011;2169;49.086;9.284;2023-09-30T07:18:04;7.60;;;5.07;;
4311;SDS011;2169;49.086;9.284;2023-09-30T07:20:31;8.57;;;5.10;;
4311;SDS011;2169;49.086;9.284;2023-09-30T07:22:58;8.67;;;5.10;;
4311;SDS011;2169;49.086;9.284;2023-09-30T07:25:27;6.90;;;5.20;;
4311;SDS011;2169;49.086;9.284;2023-09-30T07:27:57;15.30;;;8.47;;
4311;SDS011;2169;49.086;9.284;2023-09-30T07:30:24;13.17;;;4.60;;
4311;SDS011;2169;49.086;9.284;2023-09-30T07:32:51;10.43;;;5.10;;
4311;SDS011;2169;49.086;9.284;2023-09-30T07:35:18;6.17;;;4.30;;
4311;SDS011;2169;49.086;9.284;2023-09-30T07:37:45;6.90;;;5.30;;
4311;SDS011;2169;49.086;9.284;2023-09-30T07:40:12;8.20;;;4.93;;
4311;SDS011;2169;49.086;9.284;2023-09-30T07:42:40;22.60;;;6.07;;
4311;SDS011;2169;49.086;9.284;2023-09-30T07:45:07;8.30;;;4.47;;
4311;SDS011;2169;49.086;9.284;2023-09-30T07:47:36;8.10;;;4.90;;
4311;SDS011;2169;49.086;9.284;2023-09-30T07:50:03;13.10;;;5.80;;
4311;SDS011;2169;49.086;9.284;2023-09-30T07:52:34;9.23;;;5.50;;
4311;SDS011;2169;49.086;9.284;2023-09-30T07:55:01;6.93;;;4.43;;
4311;SDS011;2169;49.086;9.284;2023-09-30T07:57:30;7.47;;;4.40;;
4311;SDS011;2169;49.086;9.284;2023-09-30T07:59:58;12.43;;;4.30;;
4311;SDS011;2169;49.086;9.284;2023-09-30T08:02:24;11.43;;;4.77;;
4311;SDS011;2169;49.086;9.284;2023-09-30T08:04:57;7.03;;;5.03;;
4311;SDS011;2169;49.086;9.284;2023-09-30T08:07:25;14.80;;;5.20;;
4311;SDS011;2169;49.086;9.284;2023-09-30T08:09:52;9.70;;;4.60;;
4311;SDS011;2169;49.086;9.284;2023-09-30T08:12:19;5.77;;;3.87;;
4311;SDS011;2169;49.086;9.284;2023-09-30T08:14:46;8.47;;;3.33;;
4311;SDS011;2169;49.086;9.284;2023-09-30T08:17:15;8.80;;;5.80;;
4311;SDS011;2169;49.086;9.284;2023-09-30T08:19:42;8.90;;;4.83;;
4311;SDS011;2169;49.086;9.284;2023-09-30T08:22:09;4.80;;;3.67;;
4311;SDS011;2169;49.086;9.284;2023-09-30T08:24:36;6.87;;;4.17;;
4311;SDS011;2169;49.086;9.284;2023-09-30T08:27:03;8.50;;;5.30;;
4311;SDS011;2169;49.086;9.284;2023-09-30T08:29:32;8.57;;;3.87;;
4311;SDS011;2169;49.086;9.284;2023-09-30T08:32:01;9.37;;;4.10;;
4311;SDS011;2169;49.086;9.284;2023-09-30T08:34:29;10.73;;;4.00;;
4311;SDS011;2169;49.086;9.284;2023-09-30T08:36:56;8.13;;;6.20;;
4311;SDS011;2169;49.086;9.284;2023-09-30T08:39:23;3.53;;;3.03;;
4311;SDS011;2169;49.086;9.284;2023-09-30T08:41:50;4.80;;;2.87;;
4311;SDS011;2169;49.086;9.284;2023-09-30T08:44:17;15.83;;;4.00;;
4311;SDS011;2169;49.086;9.284;2023-09-30T08:46:44;7.63;;;4.10;;
4311;SDS011;2169;49.086;9.284;2023-09-30T08:49:12;5.67;;;3.40;;
4311;SDS011;2169;49.086;9.284;2023-09-30T08:51:42;5.57;;;3.27;;
4311;SDS011;2169;49.086;9.284;2023-09-30T08:54:09;5.30;;;3.53;;
4311;SDS011;2169;49.086;9.284;2023-09-30T08:56:36;6.80;;;3.10;;
4311;SDS011;2169;49.086;9.284;2023-09-30T08:59:07;3.97;;;3.47;;
4311;SDS011;2169;49.086;9.284;2023-09-30T09:01:36;17.63;;;3.43;;
4311;SDS011;2169;49.086;9.284;2023-09-30T09:04:03;9.73;;;2.57;;
4311;SDS011;2169;49.086;9.284;2023-09-30T09:06:33;8.77;;;2.40;;
4311;SDS011;2169;49.086;9.284;2023-09-30T09:09:13;13.33;;;3.63;;
4311;SDS011;2169;49.086;9.284;2023-09-30T09:11:41;5.80;;;2.93;;
4311;SDS011;2169;49.086;9.284;2023-09-30T09:14:08;5.00;;;2.17;;
4311;SDS011;2169;49.086;9.284;2023-09-30T09:16:35;5.50;;;3.50;;
4311;SDS011;2169;49.086;9.284;2023-09-30T09:19:12;6.30;;;2.90;;
4311;SDS011;2169;49.086;9.284;2023-09-30T09:21:52;2.63;;;2.20;;
4311;SDS011;2169;49.086;9.284;2023-09-30T09:24:31;6.30;;;3.43;;
4311;SDS011;2169;49.086;9.284;2023-09-30T09:27:09;7.93;;;3.07;;
4311;SDS011;2169;49.086;9.284;2023-09-30T09:29:37;4.80;;;2.20;;
4311;SDS011;2169;49.086;9.284;2023-09-30T09:32:11;7.43;;;2.17;;
4311;SDS011;2169;49.086;9.284;2023-09-30T09:34:39;5.17;;;3.40;;
4311;SDS011;2169;49.086;9.284;2023-09-30T09:37:13;4.73;;;3.27;;
4311;SDS011;2169;49.086;9.284;2023-09-30T09:39:49;8.73;;;2.20;;
4311;SDS011;2169;49.086;9.284;2023-09-30T09:42:24;6.53;;;2.13;;
4311;SDS011;2169;49.086;9.284;2023-09-30T09:44:55;5.83;;;2.43;;
4311;SDS011;2169;49.086;9.284;2023-09-30T09:47:24;6.50;;;2.63;;
4311;SDS011;2169;49.086;9.284;2023-09-30T09:49:52;3.43;;;3.00;;
4311;SDS011;2169;49.086;9.284;2023-09-30T09:52:19;10.30;;;3.87;;
4311;SDS011;2169;49.086;9.284;2023-09-30T09:54:48;12.00;;;2.43;;
4311;SDS011;2169;49.086;9.284;2023-09-30T09:59:44;4.17;;;2.27;;
4311;SDS011;2169;49.086;9.284;2023-09-30T10:02:13;10.83;;;3.13;;
4311;SDS011;2169;49.086;9.284;2023-09-30T10:04:42;4.17;;;2.83;;
4311;SDS011;2169;49.086;9.284;2023-09-30T10:07:10;3.23;;;2.07;;
4311;SDS011;2169;49.086;9.284;2023-09-30T10:09:41;7.77;;;3.17;;
4311;SDS011;2169;49.086;9.284;2023-09-30T10:12:13;7.33;;;2.33;;
4311;SDS011;2169;49.086;9.284;2023-09-30T10:14:41;4.53;;;3.30;;
4311;SDS011;2169;49.086;9.284;2023-09-30T10:17:09;4.43;;;2.47;;
4311;SDS011;2169;49.086;9.284;2023-09-30T10:19:36;2.67;;;2.03;;
4311;SDS011;2169;49.086;9.284;2023-09-30T10:22:22;6.27;;;2.90;;
4311;SDS011;2169;49.086;9.284;2023-09-30T10:24:50;9.60;;;2.17;;
4311;SDS011;2169;49.086;9.284;2023-09-30T10:30:13;3.53;;;2.40;;
4311;SDS011;2169;49.086;9.284;2023-09-30T10:35:47;6.67;;;2.47;;
4311;SDS011;2169;49.086;9.284;2023-09-30T10:41:08;9.27;;;5.47;;
4311;SDS011;2169;49.086;9.284;2023-09-30T10:43:38;6.73;;;3.20;;
4311;SDS011;2169;49.086;9.284;2023-09-30T10:49:16;7.63;;;2.17;;
4311;SDS011;2169;49.086;9.284;2023-09-30T10:51:56;4.77;;;2.53;;
4311;SDS011;2169;49.086;9.284;2023-09-30T10:54:25;6.40;;;2.50;;
4311;SDS011;2169;49.086;9.284;2023-09-30T10:56:53;5.27;;;2.67;;
4311;SDS011;2169;49.086;9.284;2023-09-30T10:59:22;13.80;;;3.23;;
4311;SDS011;2169;49.086;9.284;2023-09-30T11:01:49;6.03;;;2.43;;
4311;SDS011;2169;49.086;9.284;2023-09-30T11:04:18;2.20;;;2.00;;
4311;SDS011;2169;49.086;9.284;2023-09-30T11:06:45;5.30;;;3.10;;
4311;SDS011;2169;49.086;9.284;2023-09-30T11:09:15;9.07;;;2.73;;
4311;SDS011;2169;49.086;9.284;2023-09-30T11:11:43;7.47;;;2.50;;
4311;SDS011;2169;49.086;9.284;2023-09-30T11:14:22;11.00;;;3.70;;
4311;SDS011;2169;49.086;9.284;2023-09-30T11:16:50;4.03;;;2.50;;
4311;SDS011;2169;49.086;9.284;2023-09-30T11:19:19;4.87;;;2.60;;
4311;SDS011;2169;49.086;9.284;2023-09-30T11:21:48;7.03;;;3.90;;
4311;SDS011;2169;49.086;9.284;2023-09-30T11:24:16;16.53;;;10.13;;
4311;SDS011;2169;49.086;9.284;2023-09-30T11:26:43;17.27;;;8.50;;
4311;SDS011;2169;49.086;9.284;2023-09-30T11:29:12;8.50;;;4.87;;
4311;SDS011;2169;49.086;9.284;2023-09-30T11:31:43;4.67;;;3.50;;
4311;SDS011;2169;49.086;9.284;2023-09-30T11:34:11;6.93;;;3.13;;
4311;SDS011;2169;49.086;9.284;2023-09-30T11:36:39;7.67;;;2.47;;
4311;SDS011;2169;49.086;9.284;2023-09-30T11:39:08;3.73;;;2.80;;
4311;SDS011;2169;49.086;9.284;2023-09-30T11:41:36;10.47;;;4.40;;
4311;SDS011;2169;49.086;9.284;2023-09-30T11:44:05;8.50;;;3.47;;
4311;SDS011;2169;49.086;9.284;2023-09-30T11:49:28;6.73;;;2.87;;
4311;SDS011;2169;49.086;9.284;2023-09-30T11:51:57;4.23;;;2.50;;
4311;SDS011;2169;49.086;9.284;2023-09-30T11:54:28;3.30;;;3.00;;
4311;SDS011;2169;49.086;9.284;2023-09-30T11:56:56;3.90;;;2.60;;
4311;SDS011;2169;49.086;9.284;2023-09-30T11:59:24;3.47;;;2.53;;
4311;SDS011;2169;49.086;9.284;2023-09-30T12:01:52;12.10;;;3.43;;
4311;SDS011;2169;49.086;9.284;2023-09-30T12:04:19;9.87;;;3.60;;
4311;SDS011;2169;49.086;9.284;2023-09-30T12:06:46;2.97;;;2.40;;
4311;SDS011;2169;49.086;9.284;2023-09-30T12:09:14;6.10;;;3.87;;
4311;SDS011;2169;49.086;9.284;2023-09-30T12:11:42;6.93;;;2.73;;
4311;SDS011;2169;49.086;9.284;2023-09-30T12:14:10;6.77;;;2.47;;
4311;SDS011;2169;49.086;9.284;2023-09-30T12:16:38;4.93;;;3.63;;
4311;SDS011;2169;49.086;9.284;2023-09-30T12:19:07;5.30;;;3.10;;
4311;SDS011;2169;49.086;9.284;2023-09-30T12:21:35;5.83;;;2.23;;
4311;SDS011;2169;49.086;9.284;2023-09-30T12:24:02;6.10;;;1.80;;
4311;SDS011;2169;49.086;9.284;2023-09-30T12:26:29;10.70;;;3.50;;
4311;SDS011;2169;49.086;9.284;2023-09-30T12:28:56;5.67;;;2.50;;
4311;SDS011;2169;49.086;9.284;2023-09-30T12:31:24;4.50;;;2.20;;
4311;SDS011;2169;49.086;9.284;2023-09-30T12:33:50;8.50;;;2.20;;
4311;SDS011;2169;49.086;9.284;2023-09-30T12:36:20;7.50;;;2.50;;
4311;SDS011;2169;49.086;9.284;2023-09-30T12:38:47;4.77;;;2.57;;
4311;SDS011;2169;49.086;9.284;2023-09-30T12:41:14;6.73;;;2.40;;
4311;SDS011;2169;49.086;9.284;2023-09-30T12:43:44;5.47;;;2.40;;
4311;SDS011;2169;49.086;9.284;2023-09-30T12:46:11;8.10;;;2.50;;
4311;SDS011;2169;49.086;9.284;2023-09-30T12:48:38;7.87;;;3.50;;
4311;SDS011;2169;49.086;9.284;2023-09-30T12:51:05;7.60;;;3.40;;
4311;SDS011;2169;49.086;9.284;2023-09-30T12:53:35;6.17;;;2.70;;
4311;SDS011;2169;49.086;9.284;2023-09-30T12:56:02;10.73;;;3.17;;
4311;SDS011;2169;49.086;9.284;2023-09-30T12:58:29;5.60;;;2.47;;
4311;SDS011;2169;49.086;9.284;2023-09-30T13:00:56;11.87;;;3.57;;
4311;SDS011;2169;49.086;9.284;2023-09-30T13:03:23;4.83;;;2.77;;
4311;SDS011;2169;49.086;9.284;2023-09-30T13:05:50;5.97;;;2.67;;
4311;SDS011;2169;49.086;9.284;2023-09-30T13:08:17;5.60;;;2.87;;
4311;SDS011;2169;49.086;9.284;2023-09-30T13:10:45;5.43;;;2.67;;
4311;SDS011;2169;49.086;9.284;2023-09-30T13:13:13;8.13;;;2.70;;
4311;SDS011;2169;49.086;9.284;2023-09-30T13:15:40;7.93;;;2.77;;
4311;SDS011;2169;49.086;9.284;2023-09-30T13:18:07;12.60;;;3.67;;
4311;SDS011;2169;49.086;9.284;2023-09-30T13:20:34;6.83;;;2.50;;
4311;SDS011;2169;49.086;9.284;2023-09-30T13:23:01;5.10;;;2.60;;
4311;SDS011;2169;49.086;9.284;2023-09-30T13:25:28;5.33;;;2.63;;
4311;SDS011;2169;49.086;9.284;2023-09-30T13:27:56;8.00;;;3.80;;
4311;SDS011;2169;49.086;9.284;2023-09-30T13:30:23;5.83;;;2.40;;
4311;SDS011;2169;49.086;9.284;2023-09-30T13:32:50;9.30;;;3.30;;
4311;SDS011;2169;49.086;9.284;2023-09-30T13:35:16;10.07;;;3.80;;
4311;SDS011;2169;49.086;9.284;2023-09-30T13:37:44;6.50;;;3.43;;
4311;SDS011;2169;49.086;9.284;2023-09-30T13:40:11;8.20;;;3.30;;
4311;SDS011;2169;49.086;9.284;2023-09-30T13:42:38;7.53;;;3.30;;
4311;SDS011;2169;49.086;9.284;2023-09-30T13:45:07;11.90;;;3.07;;
4311;SDS011;2169;49.086;9.284;2023-09-30T13:47:35;11.83;;;2.80;;
4311;SDS011;2169;49.086;9.284;2023-09-30T13:50:02;8.10;;;3.70;;
4311;SDS011;2169;49.086;9.284;2023-09-30T13:52:31;7.90;;;2.90;;
4311;SDS011;2169;49.086;9.284;2023-09-30T13:54:58;9.23;;;3.57;;
4311;SDS011;2169;49.086;9.284;2023-09-30T13:57:25;7.07;;;3.40;;
4311;SDS011;2169;49.086;9.284;2023-09-30T13:59:52;7.57;;;3.17;;
4311;SDS011;2169;49.086;9.284;2023-09-30T14:02:20;6.03;;;3.00;;
4311;SDS011;2169;49.086;9.284;2023-09-30T14:04:47;9.30;;;2.83;;
4311;SDS011;2169;49.086;9.284;2023-09-30T14:07:14;12.57;;;3.00;;
4311;SDS011;2169;49.086;9.284;2023-09-30T14:09:43;7.37;;;3.43;;
4311;SDS011;2169;49.086;9.284;2023-09-30T14:12:10;9.83;;;2.80;;
4311;SDS011;2169;49.086;9.284;2023-09-30T14:14:37;10.50;;;3.23;;
4311;SDS011;2169;49.086;9.284;2023-09-30T14:17:04;8.50;;;3.40;;
4311;SDS011;2169;49.086;9.284;2023-09-30T14:19:36;13.83;;;3.30;;
4311;SDS011;2169;49.086;9.284;2023-09-30T14:22:03;10.40;;;3.47;;
4311;SDS011;2169;49.086;9.284;2023-09-30T14:24:30;7.07;;;2.70;;
4311;SDS011;2169;49.086;9.284;2023-09-30T14:26:58;11.60;;;3.50;;
4311;SDS011;2169;49.086;9.284;2023-09-30T14:29:25;7.87;;;3.23;;
4311;SDS011;2169;49.086;9.284;2023-09-30T14:31:51;9.20;;;3.17;;
4311;SDS011;2169;49.086;9.284;2023-09-30T14:34:18;8.47;;;4.37;;
4311;SDS011;2169;49.086;9.284;2023-09-30T14:36:46;4.53;;;2.80;;
4311;SDS011;2169;49.086;9.284;2023-09-30T14:39:13;7.83;;;2.90;;
4311;SDS011;2169;49.086;9.284;2023-09-30T14:41:41;9.70;;;3.30;;
4311;SDS011;2169;49.086;9.284;2023-09-30T14:44:08;5.70;;;2.93;;
4311;SDS011;2169;49.086;9.284;2023-09-30T14:46:37;8.20;;;3.70;;
4311;SDS011;2169;49.086;9.284;2023-09-30T14:49:04;14.67;;;3.80;;
4311;SDS011;2169;49.086;9.284;2023-09-30T14:51:32;8.60;;;3.73;;
4311;SDS011;2169;49.086;9.284;2023-09-30T14:54:00;13.77;;;4.03;;
4311;SDS011;2169;49.086;9.284;2023-09-30T14:56:27;8.20;;;3.70;;
4311;SDS011;2169;49.086;9.284;2023-09-30T14:58:54;8.40;;;3.03;;
4311;SDS011;2169;49.086;9.284;2023-09-30T15:01:21;10.23;;;3.37;;
4311;SDS011;2169;49.086;9.284;2023-09-30T15:03:48;8.60;;;3.13;;
4311;SDS011;2169;49.086;9.284;2023-09-30T15:06:14;9.07;;;2.90;;
4311;SDS011;2169;49.086;9.284;2023-09-30T15:08:41;11.10;;;3.90;;
4311;SDS011;2169;49.086;9.284;2023-09-30T15:11:13;4.23;;;3.87;;
4311;SDS011;2169;49.086;9.284;2023-09-30T15:13:40;13.03;;;3.70;;
4311;SDS011;2169;49.086;9.284;2023-09-30T15:16:14;13.97;;;3.50;;
4311;SDS011;2169;49.086;9.284;2023-09-30T15:18:41;10.80;;;4.10;;
4311;SDS011;2169;49.086;9.284;2023-09-30T15:21:08;11.50;;;3.87;;
4311;SDS011;2169;49.086;9.284;2023-09-30T15:23:35;6.73;;;3.40;;
4311;SDS011;2169;49.086;9.284;2023-09-30T15:26:02;9.30;;;2.50;;
4311;SDS011;2169;49.086;9.284;2023-09-30T15:28:30;8.20;;;3.23;;
4311;SDS011;2169;49.086;9.284;2023-09-30T15:30:57;12.30;;;4.60;;
4311;SDS011;2169;49.086;9.284;2023-09-30T15:33:25;11.63;;;4.10;;
4311;SDS011;2169;49.086;9.284;2023-09-30T15:35:52;13.10;;;3.37;;